createdAt,value
2019-03-17T00:00:44.310Z,14.65
2019-03-17T00:03:13.392Z,14.67
2019-03-17T00:05:42.431Z,14.70
2019-03-17T00:08:11.436Z,14.67
2019-03-17T00:10:40.445Z,14.67
2019-03-17T00:13:09.517Z,14.67
2019-03-17T00:15:38.551Z,14.65
2019-03-17T00:18:08.459Z,14.69
2019-03-17T00:20:37.487Z,14.67
2019-03-17T00:23:06.546Z,14.69
2019-03-17T00:25:35.541Z,14.69
2019-03-17T00:28:04.600Z,14.74
2019-03-17T00:30:33.624Z,14.75
2019-03-17T00:33:02.701Z,14.77
2019-03-17T00:35:31.894Z,14.80
2019-03-17T00:38:00.927Z,14.82
2019-03-17T00:40:29.982Z,14.84
2019-03-17T00:42:59.083Z,14.89
2019-03-17T00:45:28.130Z,14.90
2019-03-17T00:47:57.175Z,14.88
2019-03-17T00:50:26.196Z,14.88
2019-03-17T00:52:55.474Z,14.88
2019-03-17T00:55:24.567Z,14.84
2019-03-17T00:57:53.583Z,14.93
2019-03-17T01:00:22.667Z,14.91
2019-03-17T01:02:51.724Z,14.91
2019-03-17T01:05:20.721Z,14.88
2019-03-17T01:07:49.793Z,14.95
2019-03-17T01:10:18.791Z,14.98
2019-03-17T01:12:47.814Z,14.98
2019-03-17T01:15:16.877Z,15.00
2019-03-17T01:17:45.998Z,14.99
2019-03-17T01:20:15.030Z,14.95
2019-03-17T01:22:44.080Z,14.97
2019-03-17T01:25:13.112Z,14.96
2019-03-17T01:27:42.108Z,14.93
2019-03-17T01:30:11.156Z,15.02
2019-03-17T01:32:40.197Z,15.00
2019-03-17T01:35:10.248Z,14.99
2019-03-17T01:37:39.359Z,15.01
2019-03-17T01:40:08.520Z,15.01
2019-03-17T01:42:37.558Z,14.93
2019-03-17T01:45:06.649Z,14.97
2019-03-17T01:47:35.683Z,14.97
2019-03-17T01:50:04.656Z,14.98
2019-03-17T01:52:33.691Z,14.95
2019-03-17T01:55:02.804Z,14.93
2019-03-17T01:57:31.857Z,14.95
2019-03-17T02:00:00.900Z,14.95
2019-03-17T02:02:29.930Z,14.95
2019-03-17T02:04:58.939Z,14.97
2019-03-17T02:07:27.977Z,14.98
2019-03-17T02:09:57.100Z,14.89
2019-03-17T02:12:26.093Z,14.94
2019-03-17T02:14:55.135Z,14.93
2019-03-17T02:17:24.133Z,14.91
2019-03-17T02:19:53.184Z,14.90
2019-03-17T02:22:22.393Z,14.93
2019-03-17T02:24:51.455Z,14.93
2019-03-17T02:27:20.526Z,14.95
2019-03-17T02:29:49.534Z,14.96
2019-03-17T02:32:18.541Z,14.95
2019-03-17T02:34:47.580Z,14.95
2019-03-17T02:37:16.575Z,14.96
2019-03-17T02:39:45.590Z,14.99
2019-03-17T02:42:14.674Z,14.97
2019-03-17T02:44:43.659Z,14.96
2019-03-17T02:47:12.681Z,14.95
2019-03-17T02:49:41.750Z,14.98
2019-03-17T02:52:10.844Z,14.95
2019-03-17T02:54:39.895Z,14.91
2019-03-17T02:57:08.940Z,14.95
2019-03-17T02:59:37.961Z,14.93
2019-03-17T03:02:07.005Z,14.91
2019-03-17T03:04:36.029Z,14.96
2019-03-17T03:07:05.067Z,14.99
2019-03-17T03:09:34.121Z,14.93
2019-03-17T03:12:03.222Z,14.91
2019-03-17T03:14:32.440Z,14.90
2019-03-17T03:17:01.459Z,14.84
2019-03-17T03:19:30.471Z,14.83
2019-03-17T03:21:59.637Z,14.79
2019-03-17T03:24:29.016Z,14.83
2019-03-17T03:26:58.104Z,14.81
2019-03-17T03:29:27.551Z,14.80
2019-03-17T03:31:56.605Z,14.80
2019-03-17T03:34:25.844Z,14.80
2019-03-17T03:36:54.954Z,14.78
2019-03-17T03:39:23.955Z,14.79
2019-03-17T03:41:52.990Z,14.84
2019-03-17T03:44:21.995Z,14.81
2019-03-17T03:46:51.077Z,14.76
2019-03-17T03:49:20.190Z,14.76
2019-03-17T03:51:49.210Z,14.72
2019-03-17T03:54:18.205Z,14.69
2019-03-17T03:56:47.245Z,14.68
2019-03-17T03:59:16.223Z,14.68
2019-03-17T04:01:45.295Z,14.65
2019-03-17T04:04:14.266Z,14.70
2019-03-17T04:06:43.314Z,14.67
2019-03-17T04:09:12.295Z,14.65
2019-03-17T04:11:41.311Z,14.69
2019-03-17T04:14:10.335Z,14.64
2019-03-17T04:16:39.422Z,14.63
2019-03-17T04:19:08.575Z,14.56
2019-03-17T04:21:37.617Z,14.56
2019-03-17T04:24:06.655Z,14.55
2019-03-17T04:26:35.683Z,14.51
2019-03-17T04:29:04.686Z,14.48
2019-03-17T04:31:33.696Z,14.44
2019-03-17T04:34:02.717Z,14.46
2019-03-17T04:36:39.984Z,14.44
2019-03-17T04:39:02.635Z,14.37
2019-03-17T04:41:31.721Z,14.40
2019-03-17T04:44:00.840Z,14.39
2019-03-17T04:46:29.912Z,14.39
2019-03-17T04:48:59.114Z,14.41
2019-03-17T04:51:28.131Z,14.37
2019-03-17T04:53:57.246Z,14.37
2019-03-17T04:56:26.268Z,14.30
2019-03-17T04:58:55.294Z,14.30
2019-03-17T05:01:24.329Z,14.26
2019-03-17T05:03:53.406Z,14.22
2019-03-17T05:06:24.789Z,14.18
2019-03-17T05:08:53.805Z,14.20
2019-03-17T05:11:22.853Z,14.10
2019-03-17T05:13:51.875Z,14.00
2019-03-17T05:16:20.876Z,13.89
2019-03-17T05:18:49.992Z,13.81
2019-03-17T05:21:19.057Z,13.69
2019-03-17T05:23:48.023Z,13.66
2019-03-17T05:26:17.031Z,13.59
2019-03-17T05:28:46.097Z,13.55
2019-03-17T05:31:15.099Z,13.54
2019-03-17T05:33:44.107Z,13.51
2019-03-17T05:36:13.130Z,13.50
2019-03-17T05:38:42.189Z,13.53
2019-03-17T05:41:11.260Z,13.55
2019-03-17T05:43:40.261Z,13.56
2019-03-17T05:46:09.284Z,13.60
2019-03-17T05:48:38.364Z,13.63
2019-03-17T05:51:07.395Z,13.61
2019-03-17T05:53:36.582Z,13.61
2019-03-17T05:56:05.664Z,13.56
2019-03-17T05:58:34.845Z,13.60
2019-03-17T06:01:03.895Z,13.60
2019-03-17T06:03:32.962Z,13.55
2019-03-17T06:06:02.030Z,13.60
2019-03-17T06:08:33.590Z,13.54
2019-03-17T06:11:01.856Z,13.49
2019-03-17T06:13:31.152Z,13.51
2019-03-17T06:16:00.184Z,13.46
2019-03-17T06:18:29.275Z,13.47
2019-03-17T06:20:58.313Z,13.48
2019-03-17T06:23:27.352Z,13.36
2019-03-17T06:25:58.559Z,13.38
2019-03-17T06:28:27.586Z,13.39
2019-03-17T06:30:56.656Z,13.39
2019-03-17T06:33:25.659Z,13.41
2019-03-17T06:35:54.767Z,13.39
2019-03-17T06:38:23.761Z,13.36
2019-03-17T06:40:52.885Z,13.30
2019-03-17T06:43:21.931Z,13.26
2019-03-17T06:45:50.971Z,13.23
2019-03-17T06:48:19.988Z,13.16
2019-03-17T06:50:49.128Z,13.16
2019-03-17T06:53:18.115Z,13.18
2019-03-17T06:55:47.147Z,13.18
2019-03-17T06:58:16.198Z,13.17
2019-03-17T07:00:45.211Z,13.15
2019-03-17T07:03:14.239Z,13.14
2019-03-17T07:05:44.456Z,13.17
2019-03-17T07:08:13.455Z,13.17
2019-03-17T07:10:42.553Z,13.14
2019-03-17T07:13:13.913Z,13.13
2019-03-17T07:15:43.200Z,13.13
2019-03-17T07:18:12.246Z,13.12
2019-03-17T07:20:41.417Z,13.10
2019-03-17T07:23:10.515Z,13.11
2019-03-17T07:25:39.627Z,13.12
2019-03-17T07:28:08.706Z,13.13
2019-03-17T07:30:37.792Z,13.14
2019-03-17T07:33:06.823Z,13.16
2019-03-17T07:35:35.896Z,13.16
2019-03-17T07:38:05.016Z,13.13
2019-03-17T07:40:34.109Z,13.11
2019-03-17T07:43:03.310Z,13.12
2019-03-17T07:45:32.385Z,13.13
2019-03-17T07:48:07.384Z,13.16
2019-03-17T07:50:36.521Z,13.12
2019-03-17T07:53:05.652Z,13.16
2019-03-17T07:55:34.869Z,13.11
2019-03-17T07:58:03.939Z,13.11
2019-03-17T08:00:32.966Z,13.13
2019-03-17T08:03:05.234Z,13.18
2019-03-17T08:05:34.506Z,13.22
2019-03-17T08:08:09.184Z,13.24
2019-03-17T08:10:34.386Z,13.24
2019-03-17T08:13:03.440Z,13.23
2019-03-17T08:15:32.512Z,13.28
2019-03-17T08:18:01.756Z,13.31
2019-03-17T08:20:30.823Z,13.25
2019-03-17T08:22:59.918Z,13.22
2019-03-17T08:25:29.057Z,13.23
2019-03-17T08:27:58.180Z,13.21
2019-03-17T08:30:27.298Z,13.16
2019-03-17T08:32:56.391Z,13.10
2019-03-17T08:35:25.495Z,13.01
2019-03-17T08:37:54.573Z,12.93
2019-03-17T08:40:23.714Z,12.95
2019-03-17T08:42:52.851Z,12.93
2019-03-17T08:45:21.948Z,12.99
2019-03-17T08:47:57.992Z,13.05
2019-03-17T08:50:22.483Z,13.13
2019-03-17T08:52:51.601Z,13.15
2019-03-17T08:55:20.709Z,13.14
2019-03-17T08:57:49.855Z,13.23
2019-03-17T09:00:18.914Z,13.29
2019-03-17T09:02:48.055Z,13.36
2019-03-17T09:05:17.167Z,13.45
2019-03-17T09:07:46.313Z,13.52
2019-03-17T09:10:15.380Z,13.60
2019-03-17T09:12:44.586Z,13.65
2019-03-17T09:15:13.884Z,13.73
2019-03-17T09:17:43.125Z,13.85
2019-03-17T09:20:12.191Z,13.91
2019-03-17T09:22:41.342Z,13.97
2019-03-17T09:25:10.522Z,14.00
2019-03-17T09:27:39.756Z,14.01
2019-03-17T09:30:10.614Z,14.08
2019-03-17T09:32:39.756Z,14.09
2019-03-17T09:35:09.193Z,14.13
2019-03-17T09:37:38.274Z,14.18
2019-03-17T09:40:07.716Z,14.23
2019-03-17T09:42:36.751Z,14.32
2019-03-17T09:45:06.844Z,14.44
2019-03-17T09:47:36.393Z,14.47
2019-03-17T09:50:06.522Z,14.52
2019-03-17T09:52:36.149Z,14.68
2019-03-17T09:55:05.454Z,14.75
2019-03-17T09:57:34.650Z,14.82
2019-03-17T10:00:03.892Z,14.88
2019-03-17T10:02:33.083Z,14.86
2019-03-17T10:05:02.162Z,14.79
2019-03-17T10:07:31.541Z,14.73
2019-03-17T10:10:00.711Z,14.68
2019-03-17T10:12:30.525Z,14.66
2019-03-17T10:14:59.950Z,14.64
2019-03-17T10:17:29.311Z,14.63
2019-03-17T10:19:58.449Z,14.62
2019-03-17T10:22:27.640Z,14.63
2019-03-17T10:24:56.852Z,14.67
2019-03-17T10:27:25.962Z,14.71
2019-03-17T10:29:55.152Z,14.74
2019-03-17T10:32:24.215Z,14.76
2019-03-17T10:34:53.351Z,14.78
2019-03-17T10:37:23.615Z,14.77
2019-03-17T10:39:54.966Z,14.76
2019-03-17T10:42:24.111Z,14.76
2019-03-17T10:44:53.405Z,14.81
2019-03-17T10:47:22.634Z,14.86
2019-03-17T10:49:51.867Z,14.92
2019-03-17T10:52:20.917Z,14.93
2019-03-17T10:54:49.950Z,14.90
2019-03-17T10:57:19.269Z,15.00
2019-03-17T10:59:48.631Z,15.06
2019-03-17T11:02:17.810Z,15.10
2019-03-17T11:04:46.948Z,15.06
2019-03-17T11:07:16.050Z,14.96
2019-03-17T11:09:45.647Z,14.93
2019-03-17T11:12:14.819Z,14.96
2019-03-17T11:14:44.015Z,14.96
2019-03-17T11:17:13.079Z,14.95
2019-03-17T11:19:42.180Z,14.93
2019-03-17T11:22:11.199Z,14.96
2019-03-17T11:24:40.347Z,15.00
2019-03-17T11:27:09.447Z,15.11
2019-03-17T11:29:38.932Z,15.21
2019-03-17T11:32:08.264Z,15.28
2019-03-17T11:34:37.900Z,15.36
2019-03-17T11:37:07.028Z,15.41
2019-03-17T11:39:38.009Z,15.52
2019-03-17T11:42:07.125Z,15.85
2019-03-17T11:44:36.204Z,16.15
2019-03-17T11:47:05.290Z,16.39
2019-03-17T11:49:34.411Z,16.82
2019-03-17T11:52:03.547Z,16.90
2019-03-17T11:54:32.633Z,16.89
2019-03-17T11:57:01.713Z,16.85
2019-03-17T11:59:30.824Z,16.76
2019-03-17T12:01:59.825Z,16.57
2019-03-17T12:04:28.860Z,16.18
2019-03-17T12:07:01.028Z,15.88
2019-03-17T12:09:30.256Z,15.86
2019-03-17T12:11:59.295Z,15.69
2019-03-17T12:14:28.453Z,15.96
2019-03-17T12:16:57.487Z,15.92
2019-03-17T12:19:26.786Z,16.71
2019-03-17T12:22:08.134Z,17.97
2019-03-17T12:24:26.679Z,18.05
2019-03-17T12:26:55.811Z,18.07
2019-03-17T12:29:24.996Z,18.10
2019-03-17T12:31:54.159Z,17.98
2019-03-17T12:34:28.259Z,17.90
2019-03-17T12:36:54.136Z,17.90
2019-03-17T12:39:23.355Z,17.80
2019-03-17T12:41:52.372Z,17.54
2019-03-17T12:44:21.379Z,17.25
2019-03-17T12:46:50.453Z,16.94
2019-03-17T12:49:19.626Z,16.71
2019-03-17T12:51:48.643Z,16.54
2019-03-17T12:54:17.736Z,16.48
2019-03-17T12:56:46.758Z,16.59
2019-03-17T12:59:15.910Z,16.90
2019-03-17T13:01:44.947Z,17.00
2019-03-17T13:04:14.024Z,16.95
2019-03-17T13:06:43.052Z,16.61
2019-03-17T13:09:12.277Z,16.48
2019-03-17T13:11:41.366Z,16.54
2019-03-17T13:14:13.514Z,16.60
2019-03-17T13:16:42.516Z,16.62
2019-03-17T13:19:11.561Z,16.79
2019-03-17T13:21:40.599Z,16.88
2019-03-17T13:24:09.620Z,16.80
2019-03-17T13:26:38.656Z,16.76
2019-03-17T13:29:07.682Z,16.58
2019-03-17T13:31:36.889Z,16.46
2019-03-17T13:34:06.032Z,16.40
2019-03-17T13:36:35.024Z,16.24
2019-03-17T13:39:05.374Z,16.14
2019-03-17T13:41:34.579Z,16.14
2019-03-17T13:44:03.639Z,16.05
2019-03-17T13:46:32.692Z,15.99
2019-03-17T13:49:01.691Z,15.91
2019-03-17T13:51:30.709Z,15.94
2019-03-17T13:53:59.779Z,15.80
2019-03-17T13:56:28.807Z,15.79
2019-03-17T13:58:57.872Z,15.76
2019-03-17T14:01:26.867Z,15.73
2019-03-17T14:03:55.950Z,15.81
2019-03-17T14:06:24.991Z,15.95
2019-03-17T14:08:54.041Z,16.03
2019-03-17T14:11:23.073Z,16.10
2019-03-17T14:13:52.141Z,16.13
2019-03-17T14:16:21.217Z,16.16
2019-03-17T14:18:50.238Z,16.18
2019-03-17T14:21:19.303Z,16.05
2019-03-17T14:23:48.416Z,15.97
2019-03-17T14:26:17.441Z,15.92
2019-03-17T14:28:46.463Z,15.93
2019-03-17T14:31:15.534Z,15.93
2019-03-17T14:55:16.466Z,15.55
2019-03-17T14:58:08.168Z,15.36
2019-03-17T15:00:40.356Z,15.27
2019-03-17T15:03:58.537Z,15.14
2019-03-17T15:06:28.108Z,15.08
2019-03-17T15:08:58.928Z,14.95
2019-03-17T15:11:28.977Z,14.81
2019-03-17T15:13:58.724Z,14.75
2019-03-17T15:16:28.076Z,14.68
2019-03-17T15:18:57.723Z,14.67
2019-03-17T15:21:28.445Z,14.65
2019-03-17T15:40:03.904Z,14.21
2019-03-17T15:42:36.278Z,14.13
2019-03-17T15:45:06.300Z,14.06
2019-03-17T15:47:35.869Z,14.02
2019-03-17T15:50:06.196Z,14.01
2019-03-17T15:52:35.733Z,14.07
2019-03-17T15:55:06.011Z,14.14
2019-03-17T15:57:37.086Z,14.20
2019-03-17T16:00:08.037Z,14.21
2019-03-17T16:02:37.402Z,14.17
2019-03-17T16:05:07.584Z,14.11
2019-03-17T16:07:42.209Z,14.04
2019-03-17T16:10:08.654Z,13.95
2019-03-17T16:12:39.728Z,13.85
2019-03-17T16:15:10.800Z,13.74
2019-03-17T16:17:40.466Z,13.59
2019-03-17T16:20:11.751Z,13.36
2019-03-17T16:22:40.823Z,13.20
2019-03-17T16:25:10.262Z,13.05
2019-03-17T16:27:39.317Z,13.00
2019-03-17T16:30:11.750Z,12.97
2019-03-17T16:32:40.895Z,12.95
2019-03-17T16:35:10.106Z,12.89
2019-03-17T16:37:41.291Z,12.84
2019-03-17T16:40:11.772Z,12.84
2019-03-17T16:42:40.961Z,12.82
2019-03-17T16:45:10.786Z,12.79
2019-03-17T16:47:39.924Z,12.77
2019-03-17T16:50:10.762Z,12.72
2019-03-17T16:52:39.962Z,12.72
2019-03-17T16:55:11.340Z,12.73
2019-03-17T16:57:40.840Z,12.73
2019-03-17T17:00:13.117Z,12.75
2019-03-17T17:02:42.678Z,12.75
2019-03-17T17:05:12.202Z,12.71
2019-03-17T17:07:41.649Z,12.68
2019-03-17T17:10:13.077Z,12.64
2019-03-17T17:12:43.497Z,12.56
2019-03-17T17:15:17.676Z,12.49
2019-03-17T17:17:49.101Z,12.41
2019-03-17T17:20:28.349Z,12.29
2019-03-17T17:22:58.751Z,12.22
2019-03-17T17:25:28.630Z,12.17
2019-03-17T17:27:58.569Z,12.12
2019-03-17T17:30:35.223Z,12.05
2019-03-17T17:33:50.009Z,12.00
2019-03-17T17:36:19.665Z,11.88
2019-03-17T17:38:50.224Z,11.79
2019-03-17T17:41:19.627Z,11.71
2019-03-17T17:43:49.971Z,11.68
2019-03-17T17:46:22.390Z,11.69
2019-03-17T17:48:55.685Z,11.71
2019-03-17T17:51:25.645Z,11.78
2019-03-17T17:53:55.619Z,11.81
2019-03-17T17:56:25.785Z,11.85
2019-03-17T17:58:58.048Z,11.88
2019-03-17T18:26:36.815Z,11.80
2019-03-17T18:29:06.016Z,11.79
2019-03-17T18:31:45.540Z,11.81
2019-03-17T18:34:18.489Z,11.75
2019-03-17T18:37:13.465Z,11.60
2019-03-17T18:39:47.839Z,11.42
2019-03-17T18:42:17.060Z,11.20
2019-03-17T18:44:46.673Z,11.08
2019-03-17T18:47:19.645Z,10.91
2019-03-17T18:49:52.210Z,10.81
2019-03-17T18:52:23.365Z,10.73
2019-03-17T18:58:57.550Z,10.56
2019-03-17T19:01:32.000Z,10.52
2019-03-17T19:04:01.658Z,10.48
2019-03-17T19:06:31.180Z,10.45
2019-03-17T19:09:00.312Z,10.44
2019-03-17T19:11:29.380Z,10.40
2019-03-17T19:13:58.479Z,10.38
2019-03-17T19:16:27.644Z,10.36
2019-03-17T19:18:59.596Z,10.36
2019-03-17T19:21:27.778Z,10.35
2019-03-17T19:23:56.952Z,10.28
2019-03-17T19:26:27.044Z,10.24
2019-03-17T19:28:56.295Z,10.16
2019-03-17T19:31:25.555Z,10.09
2019-03-17T19:33:54.668Z,10.07
2019-03-17T19:36:23.866Z,9.98
2019-03-17T19:38:53.146Z,9.95
2019-03-17T19:41:22.982Z,9.84
2019-03-17T19:43:52.644Z,9.79
2019-03-17T19:46:22.455Z,9.71
2019-03-17T19:48:52.322Z,9.64
2019-03-17T19:51:24.863Z,9.61
2019-03-17T19:53:54.969Z,9.56
2019-03-17T19:56:25.453Z,9.52
2019-03-17T19:58:55.869Z,9.47
2019-03-17T20:01:27.329Z,9.49
2019-03-17T20:04:47.526Z,9.52
2019-03-17T20:07:18.670Z,9.55
2019-03-17T20:09:50.615Z,9.63
2019-03-17T20:12:20.264Z,9.61
2019-03-17T20:14:49.884Z,9.60
2019-03-17T20:17:19.098Z,9.58
2019-03-17T20:19:48.213Z,9.57
2019-03-17T20:22:17.592Z,9.53
2019-03-17T20:24:46.757Z,9.46
2019-03-17T20:27:15.921Z,9.39
2019-03-17T20:29:44.989Z,9.28
2019-03-17T20:32:14.135Z,9.22
2019-03-17T20:34:43.287Z,9.17
2019-03-17T20:37:31.482Z,9.10
2019-03-17T20:40:00.450Z,9.08
2019-03-17T20:42:29.539Z,9.03
2019-03-17T20:44:58.589Z,8.96
2019-03-17T20:47:27.607Z,8.91
2019-03-17T20:49:56.603Z,8.87
2019-03-17T20:52:25.670Z,8.83
2019-03-17T20:54:54.713Z,8.76
2019-03-17T20:57:23.772Z,8.73
2019-03-17T20:59:52.813Z,8.68
2019-03-17T21:02:21.877Z,8.65
2019-03-17T21:04:50.874Z,8.64
2019-03-17T21:07:22.526Z,8.59
2019-03-17T21:09:51.611Z,8.56
2019-03-17T21:12:20.669Z,8.55
2019-03-17T21:14:49.854Z,8.52
2019-03-17T21:17:18.862Z,8.53
2019-03-17T21:19:47.912Z,8.47
2019-03-17T21:22:16.941Z,8.42
2019-03-17T21:24:45.972Z,8.40
2019-03-17T21:27:14.953Z,8.37
2019-03-17T21:29:44.050Z,8.36
2019-03-17T21:32:13.114Z,8.35
2019-03-17T21:34:42.113Z,8.34
2019-03-17T21:37:11.139Z,8.31
2019-03-17T21:39:40.178Z,8.28
2019-03-17T21:42:09.191Z,8.26
2019-03-17T21:44:38.274Z,8.25
2019-03-17T21:47:08.641Z,8.25
2019-03-17T21:49:37.679Z,8.23
2019-03-17T21:52:06.733Z,8.23
2019-03-17T21:54:35.873Z,8.20
2019-03-17T21:57:04.871Z,8.20
2019-03-17T21:59:33.953Z,8.18
2019-03-17T22:02:12.330Z,8.21
2019-03-17T22:04:33.836Z,8.25
2019-03-17T22:07:02.937Z,8.32
2019-03-17T22:09:32.062Z,8.39
2019-03-17T22:12:01.158Z,8.44
2019-03-17T22:14:30.224Z,8.48
2019-03-17T22:16:59.235Z,8.53
2019-03-17T22:19:28.266Z,8.53
2019-03-17T22:21:57.422Z,8.52
2019-03-17T22:24:26.453Z,8.57
2019-03-17T22:26:55.502Z,8.62
2019-03-17T22:29:24.541Z,8.69
2019-03-17T22:31:53.599Z,8.74
2019-03-17T22:34:22.670Z,8.76
2019-03-17T22:36:51.660Z,8.78
2019-03-17T22:39:20.697Z,8.80
2019-03-17T22:41:49.739Z,8.84
2019-03-17T22:44:28.279Z,8.91
2019-03-17T22:46:57.304Z,8.86
2019-03-17T22:49:26.311Z,8.86
2019-03-17T22:51:55.336Z,8.87
2019-03-17T22:54:24.408Z,8.90
2019-03-17T22:56:53.632Z,8.91
2019-03-17T22:59:22.671Z,8.96
2019-03-17T23:01:51.781Z,8.96
2019-03-17T23:04:22.151Z,8.99
2019-03-17T23:06:51.217Z,8.97
2019-03-17T23:09:20.442Z,8.99
2019-03-17T23:11:49.440Z,8.97
2019-03-17T23:14:18.648Z,8.97
2019-03-17T23:16:47.834Z,8.99
2019-03-17T23:19:16.880Z,9.02
2019-03-17T23:21:45.972Z,9.05
2019-03-17T23:24:14.983Z,9.08
2019-03-17T23:26:44.045Z,9.09
2019-03-17T23:29:13.086Z,9.07
2019-03-17T23:31:42.121Z,9.07
2019-03-17T23:34:11.302Z,9.07
2019-03-17T23:36:40.423Z,9.04
2019-03-17T23:39:09.597Z,8.94
2019-03-17T23:41:38.614Z,8.88
2019-03-17T23:44:07.763Z,8.79
2019-03-17T23:46:36.809Z,8.73
2019-03-17T23:49:05.830Z,8.68
2019-03-17T23:51:34.832Z,8.58
2019-03-17T23:54:03.856Z,8.57
2019-03-17T23:56:32.894Z,8.51
2019-03-17T23:59:01.916Z,8.52
